Time;durP1;ratioP1;P1;durP2;ratioP2;P2;SDS_P1;SDS_P2;PMS_P1;PMS_P2;Temp;Humidity;BMP_temperature;BMP_pressure;BME280_temperature;BME280_humidity;BME280_pressure;Samples;Min_cycle;Max_cycle;Signal;HPM_P1;HPM_P2
2022/10/20 00:00:34;;;;;;;19.90;14.87;;;10.70;99.90;;;;;;5048180;28;20661;-87
2022/10/20 00:03:01;;;;;;;20.17;16.20;;;10.80;99.90;;;;;;5049927;28;21007;-86
2022/10/20 00:05:28;;;;;;;15.23;13.73;;;10.50;99.90;;;;;;5048769;28;20626;-86
2022/10/20 00:07:54;;;;;;;17.43;15.70;;;10.50;99.90;;;;;;5061463;28;20630;-86
2022/10/20 00:10:21;;;;;;;16.80;15.10;;;10.90;99.90;;;;;;5058556;28;20637;-86
2022/10/20 00:12:48;;;;;;;16.50;15.03;;;11.10;99.90;;;;;;5047946;28;20654;-86
2022/10/20 00:15:15;;;;;;;16.70;15.10;;;10.90;99.90;;;;;;5045544;28;20630;-86
2022/10/20 00:17:45;;;;;;;16.50;15.10;;;10.60;99.90;;;;;;5043036;28;20642;-87
2022/10/20 00:20:12;;;;;;;18.33;16.53;;;10.60;99.90;;;;;;5040788;28;21159;-87
2022/10/20 00:22:38;;;;;;;17.40;15.93;;;10.40;99.90;;;;;;5041105;28;20650;-88
2022/10/20 00:25:06;;;;;;;17.43;15.83;;;10.50;99.90;;;;;;5045693;28;20642;-87
2022/10/20 00:27:33;;;;;;;19.40;17.57;;;11.00;99.90;;;;;;5048373;28;20698;-87
2022/10/20 00:30:00;;;;;;;19.63;17.77;;;10.90;99.90;;;;;;5066778;28;20630;-87
2022/10/20 00:32:28;;;;;;;17.50;15.73;;;10.60;99.90;;;;;;5056018;28;20673;-87
2022/10/20 00:34:56;;;;;;;17.57;15.97;;;10.40;99.90;;;;;;5058561;28;20618;-87
2022/10/20 00:37:23;;;;;;;22.60;15.97;;;10.30;99.90;;;;;;5051508;28;20651;-86
2022/10/20 00:39:50;;;;;;;20.03;18.07;;;10.70;99.90;;;;;;5053444;28;20672;-86
2022/10/20 00:42:18;;;;;;;18.53;16.63;;;10.30;99.90;;;;;;5052203;28;20669;-87
2022/10/20 00:44:52;;;;;;;20.50;18.40;;;10.50;99.90;;;;;;5061012;28;20628;-87
2022/10/20 00:47:24;;;;;;;18.87;17.27;;;10.50;99.90;;;;;;5056265;28;20625;-87
2022/10/20 00:49:52;;;;;;;22.37;20.10;;;10.50;99.90;;;;;;5045997;28;20668;-87
2022/10/20 00:52:22;;;;;;;17.80;16.20;;;10.30;99.90;;;;;;5046602;28;20649;-86
2022/10/20 00:54:49;;;;;;;16.93;15.53;;;10.20;99.90;;;;;;5046499;28;20659;-85
2022/10/20 00:57:17;;;;;;;17.40;15.77;;;10.20;99.90;;;;;;5045592;28;20637;-86
2022/10/20 00:59:44;;;;;;;18.87;17.27;;;10.30;99.90;;;;;;5041732;28;20830;-87
2022/10/20 01:02:12;;;;;;;20.80;18.87;;;10.50;99.90;;;;;;5045701;28;20650;-87
2022/10/20 01:04:39;;;;;;;20.00;17.93;;;10.00;99.90;;;;;;5046459;28;20944;-86
2022/10/20 01:07:06;;;;;;;22.60;20.30;;;10.20;99.90;;;;;;5043296;28;20631;-86
2022/10/20 01:09:35;;;;;;;23.10;20.73;;;10.50;99.90;;;;;;5042891;28;20631;-86
2022/10/20 01:12:11;;;;;;;20.70;18.67;;;10.20;99.90;;;;;;5044349;28;20738;-85
2022/10/20 01:14:46;;;;;;;19.73;17.83;;;10.40;99.90;;;;;;5047682;28;21193;-86
2022/10/20 01:17:22;;;;;;;19.37;17.57;;;10.40;99.90;;;;;;5042729;28;20621;-86
2022/10/20 01:20:22;;;;;;;21.40;19.30;;;9.90;99.90;;;;;;5040390;28;21023;-86
2022/10/20 01:23:23;;;;;;;20.63;18.67;;;10.40;99.90;;;;;;5007587;28;20658;-86
2022/10/20 01:26:07;;;;;;;18.90;17.20;;;10.40;99.90;;;;;;5044917;28;20622;-88
2022/10/20 01:28:41;;;;;;;18.27;16.40;;;10.40;99.90;;;;;;5045151;28;20634;-86
2022/10/20 01:31:22;;;;;;;18.40;16.57;;;10.20;99.90;;;;;;5042222;28;20657;-87
2022/10/20 01:33:56;;;;;;;20.23;17.57;;;9.80;99.90;;;;;;5040725;28;20995;-87
2022/10/20 01:36:28;;;;;;;24.10;19.83;;;10.20;99.90;;;;;;5045887;28;20632;-86
2022/10/20 01:39:01;;;;;;;21.67;18.93;;;10.00;99.90;;;;;;5043209;28;21196;-87
2022/10/20 01:41:32;;;;;;;19.30;17.60;;;10.00;99.90;;;;;;5039870;28;20686;-87
2022/10/20 01:44:03;;;;;;;20.50;18.47;;;10.00;99.90;;;;;;5042934;28;21070;-86
2022/10/20 01:46:31;;;;;;;20.40;17.87;;;10.20;99.90;;;;;;5040459;28;20981;-86
2022/10/20 01:49:00;;;;;;;20.40;18.40;;;10.30;99.90;;;;;;5037695;28;20642;-87
2022/10/20 01:51:26;;;;;;;19.77;17.87;;;9.80;99.90;;;;;;5047200;28;20641;-88
2022/10/20 01:53:53;;;;;;;22.53;20.33;;;10.30;99.90;;;;;;5048035;28;20624;-86
2022/10/20 01:56:29;;;;;;;25.30;20.57;;;9.80;99.90;;;;;;5049554;28;20632;-87
2022/10/20 01:59:25;;;;;;;22.63;20.27;;;10.00;99.90;;;;;;5056314;28;20622;-88
2022/10/20 02:02:11;;;;;;;20.90;18.80;;;10.00;99.90;;;;;;5063798;28;20661;-88
2022/10/20 02:04:54;;;;;;;19.43;17.53;;;10.00;99.90;;;;;;5063643;28;20628;-88
2022/10/20 02:07:26;;;;;;;22.73;20.43;;;9.80;99.90;;;;;;5074397;28;20628;-88
2022/10/20 02:09:56;;;;;;;22.37;20.10;;;9.90;99.90;;;;;;5072054;28;20602;-88
2022/10/20 02:12:27;;;;;;;22.77;20.57;;;10.00;99.90;;;;;;5068000;28;20630;-88
2022/10/20 02:14:56;;;;;;;23.87;21.37;;;9.90;99.90;;;;;;5045175;28;20647;-88
2022/10/20 02:17:23;;;;;;;21.63;19.47;;;9.90;99.90;;;;;;5040417;28;20630;-88
2022/10/20 02:19:53;;;;;;;24.27;21.03;;;9.80;99.90;;;;;;5045482;28;20666;-88
2022/10/20 02:22:21;;;;;;;20.80;18.47;;;10.00;99.90;;;;;;5047243;28;20648;-87
2022/10/20 02:24:48;;;;;;;23.67;21.33;;;9.80;99.90;;;;;;5046720;28;20618;-87
2022/10/20 02:27:17;;;;;;;21.77;19.70;;;10.30;99.90;;;;;;5045316;28;20626;-87
2022/10/20 02:29:47;;;;;;;22.83;20.50;;;9.90;99.90;;;;;;5040680;28;20626;-88
2022/10/20 02:32:16;;;;;;;23.80;21.20;;;9.80;99.90;;;;;;5046430;28;20646;-88
2022/10/20 02:34:44;;;;;;;22.00;19.97;;;10.00;99.90;;;;;;5050806;28;21181;-87
2022/10/20 02:37:11;;;;;;;25.13;20.90;;;10.00;99.90;;;;;;5032132;28;20637;-88
2022/10/20 02:39:38;;;;;;;23.83;19.30;;;9.90;99.90;;;;;;5040871;28;20637;-87
2022/10/20 02:42:04;;;;;;;23.73;21.27;;;10.30;99.90;;;;;;5040044;28;20669;-87
2022/10/20 02:44:31;;;;;;;21.33;19.30;;;10.20;99.90;;;;;;5028073;28;20791;-87
2022/10/20 02:47:00;;;;;;;21.37;19.43;;;10.00;99.90;;;;;;5040434;28;20626;-87
2022/10/20 02:49:28;;;;;;;21.63;19.53;;;10.40;99.90;;;;;;5045672;28;20626;-87
2022/10/20 02:51:54;;;;;;;22.80;19.10;;;10.40;99.90;;;;;;5042482;28;20641;-87
2022/10/20 02:54:21;;;;;;;20.93;18.83;;;10.20;99.90;;;;;;5043660;28;20622;-86
2022/10/20 02:56:48;;;;;;;22.73;20.50;;;10.40;99.90;;;;;;5040181;28;20619;-86
2022/10/20 02:59:16;;;;;;;21.60;19.50;;;10.50;99.90;;;;;;5037797;28;20626;-86
2022/10/20 03:01:44;;;;;;;21.70;19.57;;;10.20;99.90;;;;;;5041094;28;20674;-88
2022/10/20 03:04:11;;;;;;;21.07;18.97;;;10.30;99.90;;;;;;5042348;28;20637;-86
2022/10/20 03:06:40;;;;;;;20.17;18.10;;;9.90;99.90;;;;;;5040196;28;20631;-87
2022/10/20 03:09:07;;;;;;;20.50;18.60;;;10.50;99.90;;;;;;5046309;28;20645;-86
2022/10/20 03:11:33;;;;;;;21.73;19.53;;;10.30;99.90;;;;;;5039454;28;20655;-86
2022/10/20 03:14:00;;;;;;;22.27;19.93;;;10.00;99.90;;;;;;5039324;28;20662;-87
2022/10/20 03:16:27;;;;;;;24.93;22.10;;;10.50;99.90;;;;;;5044766;28;20664;-87
2022/10/20 03:18:54;;;;;;;22.33;20.03;;;10.30;99.90;;;;;;5041991;28;22009;-87
2022/10/20 03:21:21;;;;;;;21.90;19.80;;;10.20;99.90;;;;;;5040287;28;20673;-87
2022/10/20 03:23:49;;;;;;;21.07;18.80;;;10.20;99.90;;;;;;5045906;28;20634;-86
2022/10/20 03:26:16;;;;;;;21.17;18.97;;;9.90;99.90;;;;;;5043960;28;20628;-86
2022/10/20 03:28:43;;;;;;;23.63;21.07;;;10.10;99.90;;;;;;5043888;28;20629;-86
2022/10/20 03:31:10;;;;;;;23.47;21.27;;;10.30;99.90;;;;;;5038538;28;20656;-85
2022/10/20 03:33:37;;;;;;;23.03;20.83;;;10.10;99.90;;;;;;5039306;28;21196;-87
2022/10/20 03:36:04;;;;;;;23.03;20.50;;;10.60;99.90;;;;;;5040474;28;20629;-87
2022/10/20 03:38:31;;;;;;;28.10;20.50;;;10.40;99.90;;;;;;5041001;28;20623;-86
2022/10/20 03:40:59;;;;;;;20.63;18.70;;;10.40;99.90;;;;;;5040037;28;20704;-86
2022/10/20 03:43:26;;;;;;;21.33;19.27;;;10.50;99.90;;;;;;5040011;28;20631;-86
2022/10/20 03:46:02;;;;;;;21.97;19.77;;;10.40;99.90;;;;;;5038956;28;20636;-86
2022/10/20 03:48:29;;;;;;;23.23;20.73;;;10.40;99.90;;;;;;5039469;28;20657;-86
2022/10/20 03:50:55;;;;;;;24.77;22.20;;;10.00;99.90;;;;;;5043012;28;20618;-86
2022/10/20 03:53:22;;;;;;;27.33;21.50;;;10.20;99.90;;;;;;5039480;28;21183;-87
2022/10/20 03:55:49;;;;;;;23.70;20.97;;;10.30;99.90;;;;;;5035305;28;20629;-86
2022/10/20 03:58:18;;;;;;;23.23;20.77;;;10.30;99.90;;;;;;5040598;28;20633;-88
2022/10/20 04:00:44;;;;;;;24.17;21.47;;;10.40;99.90;;;;;;5043144;28;20668;-87
2022/10/20 04:03:11;;;;;;;23.50;21.10;;;10.20;99.90;;;;;;5039377;28;20780;-87
2022/10/20 04:05:38;;;;;;;20.33;18.17;;;10.30;99.90;;;;;;5040336;28;20627;-89
2022/10/20 04:08:05;;;;;;;20.10;18.20;;;10.20;99.90;;;;;;5044295;28;20626;-87
2022/10/20 04:10:33;;;;;;;22.47;20.27;;;10.40;99.90;;;;;;5022059;28;20654;-87
2022/10/20 04:13:00;;;;;;;20.37;18.47;;;10.40;99.90;;;;;;5045329;28;20707;-87
2022/10/20 04:15:29;;;;;;;22.27;20.10;;;10.10;99.90;;;;;;5046214;28;20906;-87
2022/10/20 04:17:55;;;;;;;23.93;21.50;;;10.70;99.90;;;;;;5044625;28;20618;-87
2022/10/20 04:20:22;;;;;;;24.10;21.60;;;10.90;99.90;;;;;;5038500;28;20644;-87
2022/10/20 04:22:49;;;;;;;26.40;20.43;;;10.30;99.90;;;;;;5042738;28;20657;-88
2022/10/20 04:25:16;;;;;;;20.43;18.40;;;10.20;99.90;;;;;;5039578;28;20634;-88
2022/10/20 04:27:43;;;;;;;23.23;20.50;;;10.50;99.90;;;;;;5037089;28;20642;-88
2022/10/20 04:30:10;;;;;;;21.50;19.40;;;10.60;99.90;;;;;;5041886;28;20625;-87
2022/10/20 04:32:38;;;;;;;26.13;21.70;;;10.70;99.90;;;;;;5040874;28;21184;-87
2022/10/20 04:35:06;;;;;;;23.70;21.40;;;10.40;99.90;;;;;;5040382;28;20641;-87
2022/10/20 04:37:33;;;;;;;26.00;21.57;;;10.40;99.90;;;;;;5042911;28;20629;-87
2022/10/20 04:39:59;;;;;;;22.70;20.30;;;10.50;99.90;;;;;;5043339;28;20632;-87
2022/10/20 04:42:26;;;;;;;24.77;22.17;;;10.50;99.90;;;;;;5037373;28;21058;-87
2022/10/20 04:44:53;;;;;;;23.30;19.43;;;10.80;99.90;;;;;;5043100;28;20621;-87
2022/10/20 04:47:20;;;;;;;22.90;20.80;;;10.80;99.90;;;;;;5038517;28;21194;-87
2022/10/20 04:49:48;;;;;;;22.97;20.80;;;10.60;99.90;;;;;;5042867;28;20622;-87
2022/10/20 04:52:16;;;;;;;21.43;19.30;;;10.30;99.90;;;;;;5040782;28;20661;-87
2022/10/20 04:54:42;;;;;;;22.47;20.17;;;10.70;99.90;;;;;;5035513;28;20684;-87
2022/10/20 04:57:09;;;;;;;22.43;20.20;;;10.40;99.90;;;;;;5037398;28;20642;-86
2022/10/20 04:59:36;;;;;;;24.47;22.07;;;10.40;99.90;;;;;;5042610;28;20746;-87
2022/10/20 05:02:03;;;;;;;22.20;20.20;;;10.40;99.90;;;;;;5045878;28;20682;-87
2022/10/20 05:04:30;;;;;;;21.83;19.60;;;10.30;99.90;;;;;;5036839;28;21444;-86
2022/10/20 05:06:58;;;;;;;21.37;19.37;;;10.80;99.90;;;;;;5039717;28;20991;-86
2022/10/20 05:09:24;;;;;;;21.60;19.60;;;10.50;99.90;;;;;;5042524;28;20978;-87
2022/10/20 05:11:52;;;;;;;24.40;22.00;;;10.50;99.90;;;;;;5042351;28;21433;-86
2022/10/20 05:14:19;;;;;;;31.47;28.47;;;11.00;99.90;;;;;;5040123;28;20686;-87
2022/10/20 05:16:46;;;;;;;28.23;25.00;;;10.80;99.90;;;;;;5036811;28;20984;-87
2022/10/20 05:19:13;;;;;;;33.17;29.87;;;10.60;99.90;;;;;;5043128;28;20615;-87
2022/10/20 05:21:40;;;;;;;43.40;38.90;;;10.50;99.90;;;;;;5039414;28;20701;-87
2022/10/20 05:24:12;;;;;;;32.63;26.10;;;10.40;99.90;;;;;;5040663;28;21258;-86
2022/10/20 05:26:39;;;;;;;24.97;22.47;;;11.00;99.90;;;;;;5043470;28;20622;-86
2022/10/20 05:29:07;;;;;;;30.43;27.43;;;10.60;99.90;;;;;;5036746;28;20626;-87
2022/10/20 05:31:37;;;;;;;36.13;32.50;;;10.80;99.90;;;;;;5042292;28;20657;-87
2022/10/20 05:34:04;;;;;;;41.53;37.00;;;10.80;99.90;;;;;;5046027;28;20644;-87
2022/10/20 05:36:30;;;;;;;39.70;36.00;;;10.60;99.90;;;;;;5041190;28;20637;-87
2022/10/20 05:38:57;;;;;;;38.93;34.70;;;11.00;99.90;;;;;;5040037;28;20640;-87
2022/10/20 05:41:27;;;;;;;37.87;33.77;;;10.60;99.90;;;;;;5040692;28;20708;-87
2022/10/20 05:43:56;;;;;;;36.20;32.67;;;10.40;99.90;;;;;;5045602;28;20630;-87
2022/10/20 05:46:24;;;;;;;30.30;27.10;;;11.00;99.90;;;;;;5043801;28;20631;-87
2022/10/20 05:48:53;;;;;;;32.03;28.50;;;10.80;99.90;;;;;;5044473;28;20664;-87
2022/10/20 05:51:24;;;;;;;196.40;179.10;;;10.60;99.90;;;;;;5045664;28;20728;-87
2022/10/20 05:53:51;;;;;;;67.53;61.30;;;10.70;99.90;;;;;;5043185;28;20629;-87
2022/10/20 05:56:20;;;;;;;46.70;42.10;;;10.70;99.90;;;;;;5039464;28;21148;-87
2022/10/20 05:58:49;;;;;;;50.37;45.57;;;10.50;99.90;;;;;;5044082;28;20627;-87
2022/10/20 06:01:19;;;;;;;35.50;32.07;;;10.50;99.90;;;;;;5048516;28;21263;-87
2022/10/20 06:03:49;;;;;;;30.83;27.60;;;10.50;99.90;;;;;;5049544;28;20633;-87
2022/10/20 06:06:16;;;;;;;25.90;23.30;;;10.80;99.90;;;;;;5037375;28;20648;-87
2022/10/20 06:08:43;;;;;;;23.37;20.97;;;10.80;99.90;;;;;;5041012;28;20641;-87
2022/10/20 06:11:11;;;;;;;26.77;21.50;;;10.80;99.90;;;;;;5047772;28;20654;-87
2022/10/20 06:13:38;;;;;;;25.67;22.97;;;11.10;99.90;;;;;;5039841;28;20625;-88
2022/10/20 06:16:08;;;;;;;25.20;21.00;;;10.80;99.90;;;;;;5043893;28;20641;-90
2022/10/20 06:18:37;;;;;;;21.37;19.17;;;11.20;99.90;;;;;;5042513;28;20619;-87
2022/10/20 06:21:06;;;;;;;20.97;18.83;;;10.80;99.90;;;;;;5043162;28;21205;-87
2022/10/20 06:23:33;;;;;;;23.43;21.03;;;11.20;99.90;;;;;;5045752;28;20631;-87
2022/10/20 06:26:02;;;;;;;24.10;21.50;;;11.20;99.90;;;;;;5053573;28;20630;-86
2022/10/20 06:28:30;;;;;;;20.07;18.07;;;10.80;99.90;;;;;;5046232;28;20633;-86
2022/10/20 06:30:57;;;;;;;20.97;18.93;;;10.90;99.90;;;;;;5044206;28;20626;-85
2022/10/20 06:33:25;;;;;;;20.40;18.40;;;10.80;99.90;;;;;;5053991;28;20985;-86
2022/10/20 06:35:52;;;;;;;21.97;19.53;;;11.10;99.90;;;;;;5048728;28;20652;-87
2022/10/20 06:38:19;;;;;;;21.63;19.43;;;11.40;99.90;;;;;;5047244;28;20629;-88
2022/10/20 06:40:48;;;;;;;20.43;17.30;;;11.40;99.90;;;;;;5045784;28;20631;-88
2022/10/20 06:43:15;;;;;;;18.77;17.00;;;11.50;99.90;;;;;;5040922;28;20629;-87
2022/10/20 06:45:42;;;;;;;19.17;17.20;;;11.50;99.90;;;;;;5052063;28;20952;-87
2022/10/20 06:48:09;;;;;;;18.67;17.07;;;11.10;99.90;;;;;;5041339;28;20754;-87
2022/10/20 06:50:37;;;;;;;19.17;17.17;;;11.40;99.90;;;;;;5038320;28;20622;-86
2022/10/20 06:53:04;;;;;;;18.07;16.23;;;11.40;99.90;;;;;;5051255;28;20649;-87
2022/10/20 06:55:30;;;;;;;17.80;16.20;;;11.30;99.90;;;;;;5053932;28;20635;-88
2022/10/20 06:57:57;;;;;;;18.43;16.50;;;11.70;99.90;;;;;;5053976;28;20625;-86
2022/10/20 07:00:24;;;;;;;16.57;15.07;;;11.50;99.90;;;;;;5050509;28;20627;-89
2022/10/20 07:02:52;;;;;;;17.37;15.87;;;11.90;99.90;;;;;;5053040;28;20696;-86
2022/10/20 07:05:20;;;;;;;19.87;16.40;;;11.70;99.90;;;;;;5039929;28;20626;-86
2022/10/20 07:07:52;;;;;;;18.00;15.87;;;12.20;99.90;;;;;;5047213;28;20654;-88
2022/10/20 07:10:19;;;;;;;20.97;16.47;;;11.70;99.90;;;;;;5048072;28;20627;-87
2022/10/20 07:12:49;;;;;;;18.23;16.53;;;11.70;99.90;;;;;;5041639;28;20665;-88
2022/10/20 07:15:16;;;;;;;17.93;16.40;;;11.70;99.90;;;;;;5029029;28;20671;-87
2022/10/20 07:17:42;;;;;;;17.80;15.97;;;12.20;99.90;;;;;;5048585;28;21051;-88
2022/10/20 07:20:10;;;;;;;17.20;15.37;;;12.40;99.90;;;;;;5040988;28;20652;-87
2022/10/20 07:22:37;;;;;;;15.83;14.37;;;12.20;99.90;;;;;;5040247;28;20751;-86
2022/10/20 07:25:06;;;;;;;15.57;14.13;;;12.70;99.90;;;;;;5045579;28;20623;-86
2022/10/20 07:27:33;;;;;;;18.43;14.67;;;12.80;99.90;;;;;;5041356;28;21283;-86
2022/10/20 07:29:59;;;;;;;16.80;15.10;;;12.90;99.90;;;;;;5038907;28;20650;-87
2022/10/20 07:32:26;;;;;;;17.73;13.13;;;12.90;99.90;;;;;;5040364;28;20804;-85
2022/10/20 07:34:54;;;;;;;14.40;12.97;;;12.90;99.90;;;;;;5044240;28;20661;-87
2022/10/20 07:37:21;;;;;;;15.13;13.10;;;12.60;99.90;;;;;;5040992;28;21191;-86
2022/10/20 07:39:47;;;;;;;18.00;14.50;;;12.50;99.90;;;;;;5045765;28;20618;-86
2022/10/20 07:42:15;;;;;;;14.80;13.40;;;12.30;99.90;;;;;;5040988;28;20666;-85
2022/10/20 07:44:42;;;;;;;15.70;14.20;;;12.70;99.90;;;;;;5041348;28;20654;-86
2022/10/20 07:47:13;;;;;;;18.03;16.30;;;13.10;99.90;;;;;;5042197;28;20760;-87
2022/10/20 07:49:40;;;;;;;25.93;14.37;;;13.40;99.90;;;;;;5043538;28;20701;-86
2022/10/20 07:52:07;;;;;;;14.73;12.77;;;13.80;99.90;;;;;;5039400;28;20632;-87
2022/10/20 07:54:36;;;;;;;17.30;15.90;;;14.00;99.90;;;;;;5043583;28;20684;-87
2022/10/20 07:57:03;;;;;;;13.87;12.47;;;14.30;99.90;;;;;;5043969;28;20590;-87
2022/10/20 07:59:33;;;;;;;11.03;10.10;;;14.30;99.90;;;;;;5038519;28;20639;-87
2022/10/20 08:02:01;;;;;;;13.53;9.67;;;14.60;99.90;;;;;;5046670;28;20666;-88
2022/10/20 08:04:30;;;;;;;9.93;9.03;;;14.80;99.90;;;;;;5037808;28;20662;-87
2022/10/20 08:06:57;;;;;;;9.33;8.57;;;14.80;99.90;;;;;;5038476;28;21323;-87
2022/10/20 08:09:24;;;;;;;9.03;8.13;;;14.50;99.90;;;;;;5044068;28;20631;-87
2022/10/20 08:11:51;;;;;;;10.67;9.47;;;14.60;99.90;;;;;;5040580;28;20623;-86
2022/10/20 08:14:18;;;;;;;8.47;7.10;;;14.60;99.90;;;;;;5037302;28;21306;-86
2022/10/20 08:16:46;;;;;;;15.70;11.43;;;14.80;99.90;;;;;;5038100;28;20638;-86
2022/10/20 08:19:13;;;;;;;9.03;8.00;;;14.80;99.90;;;;;;5043087;28;20625;-86
2022/10/20 08:21:40;;;;;;;9.90;7.50;;;14.90;99.90;;;;;;5039868;28;20670;-87
2022/10/20 08:24:07;;;;;;;7.77;7.03;;;14.70;99.90;;;;;;5039403;28;20658;-85
2022/10/20 08:26:34;;;;;;;8.13;7.27;;;14.90;99.90;;;;;;5039544;28;20653;-87
2022/10/20 08:29:02;;;;;;;7.00;6.40;;;15.00;99.90;;;;;;5041466;28;20617;-87
2022/10/20 08:31:29;;;;;;;8.63;6.47;;;15.10;99.90;;;;;;5039546;28;20709;-86
2022/10/20 08:33:58;;;;;;;8.40;6.70;;;15.30;99.90;;;;;;5027859;28;20668;-87
2022/10/20 08:36:27;;;;;;;5.70;5.20;;;15.50;99.90;;;;;;5039500;28;20638;-87
2022/10/20 08:38:58;;;;;;;6.77;6.10;;;15.60;99.90;;;;;;5042005;28;20618;-87
2022/10/20 08:41:29;;;;;;;6.37;5.80;;;16.00;99.90;;;;;;5039776;28;20665;-87
2022/10/20 08:43:57;;;;;;;5.77;5.27;;;15.70;99.90;;;;;;5044278;28;20753;-87
2022/10/20 08:46:30;;;;;;;6.17;5.57;;;15.80;99.90;;;;;;5038218;28;20728;-87
2022/10/20 08:48:58;;;;;;;4.80;4.40;;;15.60;99.90;;;;;;5040910;28;20637;-87
2022/10/20 08:51:30;;;;;;;4.47;4.10;;;15.70;99.90;;;;;;5036139;28;20626;-87
2022/10/20 08:53:59;;;;;;;4.87;4.50;;;15.80;99.90;;;;;;5044004;28;20661;-87
2022/10/20 08:56:29;;;;;;;5.03;4.63;;;15.70;99.90;;;;;;5045256;28;20681;-87
2022/10/20 08:58:57;;;;;;;4.43;4.13;;;16.00;99.90;;;;;;5042891;28;20746;-88
2022/10/20 09:01:28;;;;;;;5.67;5.17;;;16.00;99.90;;;;;;5044191;28;21196;-87
2022/10/20 09:03:57;;;;;;;4.30;4.00;;;16.00;99.90;;;;;;5050881;28;20774;-88
2022/10/20 09:06:25;;;;;;;7.67;4.37;;;16.00;99.90;;;;;;5053368;28;20630;-87
2022/10/20 09:08:54;;;;;;;4.90;4.47;;;16.00;99.90;;;;;;5053857;28;20654;-88
2022/10/20 09:11:25;;;;;;;5.53;4.30;;;16.10;99.90;;;;;;5045794;28;20913;-88
2022/10/20 09:13:53;;;;;;;5.40;4.90;;;16.20;99.90;;;;;;5046671;28;20755;-87
2022/10/20 09:16:26;;;;;;;5.40;4.80;;;16.30;99.90;;;;;;5044578;28;20725;-88
2022/10/20 09:18:57;;;;;;;4.70;4.40;;;16.10;99.90;;;;;;5047109;28;21134;-88
2022/10/20 09:21:25;;;;;;;9.03;5.33;;;16.10;99.90;;;;;;5040823;28;20637;-88
2022/10/20 09:24:00;;;;;;;4.93;4.53;;;16.40;99.90;;;;;;5050883;28;20700;-88
2022/10/20 09:26:33;;;;;;;4.70;4.30;;;16.60;99.90;;;;;;5044174;28;20632;-88
2022/10/20 09:29:15;;;;;;;5.23;4.20;;;16.90;99.90;;;;;;5041887;28;20623;-88
2022/10/20 09:31:44;;;;;;;4.23;3.90;;;17.20;99.90;;;;;;5048208;28;20631;-88
2022/10/20 09:34:25;;;;;;;5.83;4.33;;;16.70;99.90;;;;;;5046557;28;20660;-88
2022/10/20 09:36:59;;;;;;;4.73;4.00;;;17.00;99.90;;;;;;5041530;28;20743;-88
2022/10/20 09:39:29;;;;;;;4.63;4.23;;;17.40;99.90;;;;;;5046688;28;20993;-89
2022/10/20 09:42:03;;;;;;;3.63;3.33;;;17.40;99.90;;;;;;5046291;28;20649;-89
2022/10/20 09:44:33;;;;;;;4.07;3.77;;;17.40;99.90;;;;;;5050978;28;20675;-89
2022/10/20 09:47:01;;;;;;;5.30;3.30;;;17.10;99.90;;;;;;5042612;28;20629;-89
2022/10/20 09:49:30;;;;;;;3.73;3.43;;;17.10;99.90;;;;;;5050723;28;20641;-88
2022/10/20 09:52:01;;;;;;;3.20;3.00;;;16.80;99.90;;;;;;5039052;28;20638;-88
2022/10/20 09:54:28;;;;;;;10.17;3.53;;;16.80;99.90;;;;;;5039815;28;20689;-86
2022/10/20 09:57:04;;;;;;;5.20;3.13;;;16.80;99.90;;;;;;5040230;28;20641;-87
2022/10/20 09:59:34;;;;;;;4.40;3.30;;;17.00;99.90;;;;;;5045683;28;20652;-85
2022/10/20 10:02:04;;;;;;;6.67;4.13;;;16.90;99.90;;;;;;5043210;28;20686;-87
2022/10/20 10:04:35;;;;;;;4.73;4.33;;;16.50;99.90;;;;;;5038339;28;20737;-86
2022/10/20 10:07:06;;;;;;;6.10;5.70;;;16.40;99.90;;;;;;5038896;28;20614;-87
2022/10/20 10:09:36;;;;;;;4.97;4.40;;;16.40;99.90;;;;;;5039958;28;20621;-87
2022/10/20 10:12:13;;;;;;;4.97;4.47;;;16.60;99.90;;;;;;5044954;28;20698;-87
2022/10/20 10:14:52;;;;;;;15.53;5.27;;;16.70;99.90;;;;;;5041384;28;20639;-88
2022/10/20 10:17:29;;;;;;;4.77;4.30;;;16.80;99.90;;;;;;5043205;28;20699;-88
2022/10/20 10:19:57;;;;;;;5.03;4.23;;;16.80;99.90;;;;;;5044799;28;20719;-88
2022/10/20 10:22:25;;;;;;;6.73;4.87;;;16.60;99.90;;;;;;5044030;28;20666;-87
2022/10/20 10:24:57;;;;;;;5.23;4.73;;;16.30;99.90;;;;;;5046691;28;20668;-87
2022/10/20 10:27:27;;;;;;;6.20;4.93;;;16.60;99.90;;;;;;5045905;28;20615;-87
2022/10/20 10:29:54;;;;;;;4.63;4.20;;;16.80;99.90;;;;;;5045918;28;20641;-87
2022/10/20 10:32:25;;;;;;;5.27;4.77;;;16.90;99.90;;;;;;5042414;28;20625;-87
2022/10/20 10:35:12;;;;;;;5.40;4.30;;;17.10;99.90;;;;;;5041814;28;20645;-87
2022/10/20 10:37:43;;;;;;;4.70;4.30;;;17.20;99.90;;;;;;5043714;28;20980;-88
2022/10/20 10:40:15;;;;;;;4.80;4.33;;;17.50;99.90;;;;;;5042094;28;20637;-87
2022/10/20 10:43:28;;;;;;;5.80;3.70;;;17.50;99.90;;;;;;5042363;28;20689;-87
2022/10/20 10:45:58;;;;;;;5.17;4.63;;;17.10;99.90;;;;;;5042156;28;21178;-87
2022/10/20 10:48:53;;;;;;;4.77;4.37;;;16.80;99.90;;;;;;5047098;28;20629;-87
2022/10/20 10:51:29;;;;;;;4.53;4.23;;;17.10;99.90;;;;;;5062802;28;20606;-88
2022/10/20 10:54:10;;;;;;;5.77;4.67;;;17.20;99.90;;;;;;5048835;28;20638;-88
2022/10/20 10:56:43;;;;;;;5.50;3.80;;;17.00;99.90;;;;;;5038302;28;21231;-88
2022/10/20 10:59:12;;;;;;;10.60;3.70;;;17.50;99.90;;;;;;5044823;28;21009;-87
2022/10/20 11:02:21;;;;;;;3.47;3.13;;;17.50;99.90;;;;;;5046281;28;20696;-89
2022/10/20 11:05:09;;;;;;;4.97;3.73;;;17.90;99.90;;;;;;5024391;28;20670;-87
2022/10/20 11:07:42;;;;;;;4.93;4.53;;;18.10;99.90;;;;;;5042359;28;20633;-87
2022/10/20 11:10:21;;;;;;;4.77;4.37;;;17.80;99.90;;;;;;5040981;28;21184;-88
2022/10/20 11:13:02;;;;;;;5.17;4.70;;;17.70;99.90;;;;;;5041456;28;20637;-87
2022/10/20 11:15:48;;;;;;;6.60;4.17;;;17.80;99.90;;;;;;5044212;28;20618;-87
2022/10/20 11:18:26;;;;;;;6.00;4.10;;;17.50;99.90;;;;;;5037394;28;21621;-87
2022/10/20 11:21:00;;;;;;;6.53;4.80;;;17.60;99.90;;;;;;5041621;28;20616;-87
2022/10/20 11:23:50;;;;;;;4.60;4.20;;;17.90;99.90;;;;;;5035643;28;20672;-87
2022/10/20 11:26:24;;;;;;;4.80;3.70;;;17.30;99.90;;;;;;5030439;28;20753;-87
2022/10/20 11:28:54;;;;;;;5.10;4.10;;;17.10;99.90;;;;;;5046671;28;20622;-87
2022/10/20 11:31:27;;;;;;;4.90;4.30;;;17.50;99.90;;;;;;5043377;28;20652;-87
2022/10/20 11:34:03;;;;;;;5.33;4.20;;;17.50;99.90;;;;;;5038138;28;20657;-87
2022/10/20 11:36:36;;;;;;;5.77;3.43;;;17.60;99.90;;;;;;5045742;28;20625;-88
2022/10/20 11:39:05;;;;;;;5.30;4.50;;;17.40;99.90;;;;;;5040663;28;20630;-86
2022/10/20 11:41:38;;;;;;;6.77;4.03;;;17.50;99.90;;;;;;5049342;28;20694;-87
2022/10/20 11:44:11;;;;;;;5.17;4.73;;;17.80;99.90;;;;;;5047962;28;20760;-86
2022/10/20 11:46:44;;;;;;;8.97;3.60;;;18.30;99.90;;;;;;5045300;28;20641;-87
2022/10/20 11:49:18;;;;;;;3.40;3.03;;;18.40;99.90;;;;;;5050214;28;20621;-87
2022/10/20 11:52:26;;;;;;;4.63;4.23;;;18.50;99.90;;;;;;5042176;28;20630;-87
2022/10/20 11:55:11;;;;;;;3.83;3.53;;;18.20;99.90;;;;;;4967800;28;20657;-84
2022/10/20 11:57:52;;;;;;;7.60;4.90;;;17.80;99.90;;;;;;5035883;28;20619;-87
2022/10/20 12:00:47;;;;;;;5.13;4.63;;;17.60;99.90;;;;;;5045287;28;20634;-87
2022/10/20 12:03:54;;;;;;;5.00;4.37;;;17.70;99.90;;;;;;5050421;28;20682;-87
2022/10/20 12:07:01;;;;;;;4.70;4.30;;;17.70;99.90;;;;;;5070870;28;20606;-87
2022/10/20 12:09:57;;;;;;;5.80;4.50;;;18.20;99.90;;;;;;4969693;28;21032;-87
2022/10/20 12:12:31;;;;;;;4.80;4.40;;;17.90;99.90;;;;;;5032610;28;20673;-87
2022/10/20 12:15:01;;;;;;;5.03;4.37;;;17.20;99.90;;;;;;5043306;28;20677;-87
2022/10/20 12:17:34;;;;;;;4.30;4.00;;;17.20;99.90;;;;;;5048589;28;20622;-86
2022/10/20 12:20:39;;;;;;;7.60;4.60;;;17.30;99.90;;;;;;5043886;28;20611;-87
2022/10/20 12:23:07;;;;;;;5.20;4.70;;;17.10;99.90;;;;;;5045749;28;20685;-88
2022/10/20 12:25:39;;;;;;;7.43;4.20;;;17.00;99.90;;;;;;5038776;28;21234;-88
2022/10/20 12:28:42;;;;;;;5.17;4.60;;;17.10;99.90;;;;;;5044685;28;20689;-87
2022/10/20 12:31:12;;;;;;;5.70;4.40;;;17.30;99.90;;;;;;5042954;28;20625;-88
2022/10/20 12:33:42;;;;;;;8.00;5.43;;;17.50;99.90;;;;;;5039821;28;21220;-88
2022/10/20 12:36:26;;;;;;;5.87;5.13;;;17.30;99.90;;;;;;5040504;28;20623;-86
2022/10/20 12:39:07;;;;;;;5.20;4.43;;;17.20;99.90;;;;;;5043771;28;20621;-89
2022/10/20 12:41:39;;;;;;;6.70;4.30;;;17.30;99.90;;;;;;5044924;28;20637;-86
2022/10/20 12:44:16;;;;;;;5.37;4.10;;;17.40;99.90;;;;;;5061149;28;20672;-87
2022/10/20 12:46:54;;;;;;;5.10;4.20;;;17.60;99.90;;;;;;5050680;28;20633;-89
2022/10/20 12:49:27;;;;;;;5.63;5.10;;;17.40;99.90;;;;;;5053798;28;20664;-88
2022/10/20 12:51:57;;;;;;;6.50;4.63;;;17.30;99.90;;;;;;5052568;28;20647;-91